sensor_id;sensor_type;location;lat;lon;timestamp;pressure;altitude;pressure_sealevel;temperature;humidity
7480;BME280;3781;42.272;22.658;2023-11-21T00:01:06;94277.97;;;13.84;46.26
7480;BME280;3781;42.272;22.658;2023-11-21T00:03:34;94275.22;;;14.26;45.25
7480;BME280;3781;42.272;22.658;2023-11-21T00:06:01;94270.00;;;14.42;45.04
7480;BME280;3781;42.272;22.658;2023-11-21T00:08:28;94262.47;;;14.55;44.67
7480;BME280;3781;42.272;22.658;2023-11-21T00:10:55;94249.47;;;14.31;44.94
7480;BME280;3781;42.272;22.658;2023-11-21T00:13:23;94256.59;;;14.61;44.48
7480;BME280;3781;42.272;22.658;2023-11-21T00:15:50;94268.94;;;13.46;44.15
7480;BME280;3781;42.272;22.658;2023-11-21T00:18:17;94282.41;;;12.33;47.15
7480;BME280;3781;42.272;22.658;2023-11-21T00:20:43;94286.94;;;12.31;48.95
7480;BME280;3781;42.272;22.658;2023-11-21T00:23:10;94286.63;;;12.85;48.54
7480;BME280;3781;42.272;22.658;2023-11-21T00:25:37;94287.13;;;13.22;48.20
7480;BME280;3781;42.272;22.658;2023-11-21T00:28:04;94288.22;;;13.61;47.09
7480;BME280;3781;42.272;22.658;2023-11-21T00:30:32;94292.22;;;14.22;46.42
7480;BME280;3781;42.272;22.658;2023-11-21T00:33:00;94298.75;;;14.34;45.59
7480;BME280;3781;42.272;22.658;2023-11-21T00:35:26;94297.75;;;14.67;44.60
7480;BME280;3781;42.272;22.658;2023-11-21T00:37:53;94305.69;;;14.90;43.36
7480;BME280;3781;42.272;22.658;2023-11-21T00:40:20;94301.97;;;14.76;43.51
7480;BME280;3781;42.272;22.658;2023-11-21T00:42:47;94291.53;;;14.76;43.12
7480;BME280;3781;42.272;22.658;2023-11-21T00:45:14;94305.09;;;14.72;43.22
7480;BME280;3781;42.272;22.658;2023-11-21T00:47:43;94295.44;;;14.80;43.41
7480;BME280;3781;42.272;22.658;2023-11-21T00:50:09;94279.16;;;14.46;43.40
7480;BME280;3781;42.272;22.658;2023-11-21T00:52:36;94298.25;;;14.55;43.51
7480;BME280;3781;42.272;22.658;2023-11-21T00:55:04;94293.84;;;14.63;43.15
7480;BME280;3781;42.272;22.658;2023-11-21T00:57:32;94299.41;;;14.36;42.78
7480;BME280;3781;42.272;22.658;2023-11-21T00:59:59;94268.34;;;14.01;43.27
7480;BME280;3781;42.272;22.658;2023-11-21T01:02:26;94295.13;;;14.11;43.10
7480;BME280;3781;42.272;22.658;2023-11-21T01:04:55;94292.53;;;14.19;43.34
7480;BME280;3781;42.272;22.658;2023-11-21T01:07:22;94256.28;;;13.76;43.82
7480;BME280;3781;42.272;22.658;2023-11-21T01:09:49;94290.25;;;13.92;44.27
7480;BME280;3781;42.272;22.658;2023-11-21T01:12:16;94256.59;;;13.73;43.76
7480;BME280;3781;42.272;22.658;2023-11-21T01:14:44;94279.97;;;13.98;44.18
7480;BME280;3781;42.272;22.658;2023-11-21T01:17:11;94280.75;;;13.99;43.98
7480;BME280;3781;42.272;22.658;2023-11-21T01:19:38;94281.72;;;13.90;43.57
7480;BME280;3781;42.272;22.658;2023-11-21T01:22:06;94263.44;;;13.90;43.25
7480;BME280;3781;42.272;22.658;2023-11-21T01:24:34;94288.56;;;13.58;43.44
7480;BME280;3781;42.272;22.658;2023-11-21T01:27:01;94276.47;;;13.57;44.18
7480;BME280;3781;42.272;22.658;2023-11-21T01:29:29;94293.75;;;13.58;44.13
7480;BME280;3781;42.272;22.658;2023-11-21T01:31:56;94290.50;;;13.56;44.50
7480;BME280;3781;42.272;22.658;2023-11-21T01:34:23;94288.84;;;13.55;44.51
7480;BME280;3781;42.272;22.658;2023-11-21T01:36:50;94285.59;;;13.53;44.78
7480;BME280;3781;42.272;22.658;2023-11-21T01:39:18;94246.47;;;13.61;44.04
7480;BME280;3781;42.272;22.658;2023-11-21T01:41:49;94271.75;;;13.69;43.90
7480;BME280;3781;42.272;22.658;2023-11-21T01:44:16;94283.34;;;13.67;44.35
7480;BME280;3781;42.272;22.658;2023-11-21T01:46:44;94283.50;;;13.65;44.35
7480;BME280;3781;42.272;22.658;2023-11-21T01:49:12;94273.56;;;13.77;44.64
7480;BME280;3781;42.272;22.658;2023-11-21T01:51:40;94259.06;;;13.74;44.26
7480;BME280;3781;42.272;22.658;2023-11-21T01:54:09;94262.13;;;13.61;44.73
7480;BME280;3781;42.272;22.658;2023-11-21T01:56:38;94243.06;;;13.93;44.61
7480;BME280;3781;42.272;22.658;2023-11-21T01:59:05;94258.06;;;13.75;43.97
7480;BME280;3781;42.272;22.658;2023-11-21T02:01:33;94256.88;;;13.45;44.82
7480;BME280;3781;42.272;22.658;2023-11-21T02:04:00;94253.13;;;12.98;46.35
7480;BME280;3781;42.272;22.658;2023-11-21T02:06:27;94259.00;;;12.66;47.54
7480;BME280;3781;42.272;22.658;2023-11-21T02:08:56;94252.19;;;13.07;46.20
7480;BME280;3781;42.272;22.658;2023-11-21T02:11:25;94252.00;;;13.50;45.54
7480;BME280;3781;42.272;22.658;2023-11-21T02:13:54;94233.78;;;13.91;44.92
7480;BME280;3781;42.272;22.658;2023-11-21T02:16:21;94244.06;;;13.76;44.73
7480;BME280;3781;42.272;22.658;2023-11-21T02:18:48;94245.84;;;14.00;44.72
7480;BME280;3781;42.272;22.658;2023-11-21T02:21:16;94244.19;;;13.99;44.51
7480;BME280;3781;42.272;22.658;2023-11-21T02:23:45;94249.47;;;14.31;43.92
7480;BME280;3781;42.272;22.658;2023-11-21T02:26:12;94247.78;;;14.14;44.33
7480;BME280;3781;42.272;22.658;2023-11-21T02:28:39;94247.47;;;14.01;44.59
7480;BME280;3781;42.272;22.658;2023-11-21T02:31:06;94253.34;;;14.03;43.94
7480;BME280;3781;42.272;22.658;2023-11-21T02:33:33;94254.31;;;13.86;43.74
7480;BME280;3781;42.272;22.658;2023-11-21T02:36:00;94261.50;;;13.84;44.27
7480;BME280;3781;42.272;22.658;2023-11-21T02:38:27;94257.41;;;13.65;45.02
7480;BME280;3781;42.272;22.658;2023-11-21T02:40:57;94246.66;;;13.84;45.54
7480;BME280;3781;42.272;22.658;2023-11-21T02:43:24;94233.75;;;13.67;45.08
7480;BME280;3781;42.272;22.658;2023-11-21T02:45:51;94224.88;;;13.35;44.84
7480;BME280;3781;42.272;22.658;2023-11-21T02:48:18;94219.53;;;12.87;45.41
7480;BME280;3781;42.272;22.658;2023-11-21T02:50:45;94244.38;;;12.73;45.67
7480;BME280;3781;42.272;22.658;2023-11-21T02:53:12;94238.28;;;12.57;47.40
7480;BME280;3781;42.272;22.658;2023-11-21T02:55:39;94241.34;;;12.94;46.40
7480;BME280;3781;42.272;22.658;2023-11-21T02:58:07;94243.53;;;13.56;45.54
7480;BME280;3781;42.272;22.658;2023-11-21T03:00:34;94241.53;;;13.42;45.40
7480;BME280;3781;42.272;22.658;2023-11-21T03:03:01;94249.06;;;13.53;45.40
7480;BME280;3781;42.272;22.658;2023-11-21T03:05:27;94249.00;;;13.29;45.45
7480;BME280;3781;42.272;22.658;2023-11-21T03:07:55;94242.53;;;13.49;45.26
7480;BME280;3781;42.272;22.658;2023-11-21T03:10:22;94241.28;;;13.70;45.12
7480;BME280;3781;42.272;22.658;2023-11-21T03:12:49;94245.19;;;13.74;44.92
7480;BME280;3781;42.272;22.658;2023-11-21T03:15:17;94244.72;;;14.02;44.74
7480;BME280;3781;42.272;22.658;2023-11-21T03:17:44;94247.16;;;13.80;45.18
7480;BME280;3781;42.272;22.658;2023-11-21T03:20:11;94246.63;;;13.60;45.38
7480;BME280;3781;42.272;22.658;2023-11-21T03:22:39;94217.72;;;12.87;46.13
7480;BME280;3781;42.272;22.658;2023-11-21T03:25:06;94219.81;;;12.76;47.01
7480;BME280;3781;42.272;22.658;2023-11-21T03:27:36;94245.25;;;12.90;46.77
7480;BME280;3781;42.272;22.658;2023-11-21T03:30:05;94214.41;;;12.69;47.01
7480;BME280;3781;42.272;22.658;2023-11-21T03:32:34;94242.38;;;13.01;46.94
7480;BME280;3781;42.272;22.658;2023-11-21T03:35:01;94239.09;;;12.91;46.73
7480;BME280;3781;42.272;22.658;2023-11-21T03:37:29;94230.38;;;13.16;45.87
7480;BME280;3781;42.272;22.658;2023-11-21T03:39:56;94221.44;;;13.27;45.29
7480;BME280;3781;42.272;22.658;2023-11-21T03:42:23;94231.09;;;13.26;45.70
7480;BME280;3781;42.272;22.658;2023-11-21T03:44:51;94230.38;;;13.16;45.22
7480;BME280;3781;42.272;22.658;2023-11-21T03:47:17;94244.06;;;13.10;45.48
7480;BME280;3781;42.272;22.658;2023-11-21T03:49:47;94241.06;;;13.39;45.46
7480;BME280;3781;42.272;22.658;2023-11-21T03:52:13;94220.91;;;13.07;45.19
7480;BME280;3781;42.272;22.658;2023-11-21T03:54:40;94243.72;;;12.71;46.43
7480;BME280;3781;42.272;22.658;2023-11-21T03:57:08;94237.53;;;12.72;46.47
7480;BME280;3781;42.272;22.658;2023-11-21T03:59:35;94231.50;;;12.72;46.41
7480;BME280;3781;42.272;22.658;2023-11-21T04:02:02;94221.69;;;12.66;46.42
7480;BME280;3781;42.272;22.658;2023-11-21T04:04:29;94222.41;;;12.76;46.57
7480;BME280;3781;42.272;22.658;2023-11-21T04:06:57;94225.88;;;13.26;45.64
7480;BME280;3781;42.272;22.658;2023-11-21T04:09:24;94227.00;;;12.82;45.46
7480;BME280;3781;42.272;22.658;2023-11-21T04:11:51;94229.25;;;12.77;45.79
7480;BME280;3781;42.272;22.658;2023-11-21T04:14:18;94228.47;;;11.99;47.49
7480;BME280;3781;42.272;22.658;2023-11-21T04:16:45;94215.41;;;11.91;47.38
7480;BME280;3781;42.272;22.658;2023-11-21T04:19:12;94231.22;;;11.98;48.41
7480;BME280;3781;42.272;22.658;2023-11-21T04:21:40;94222.56;;;12.41;48.02
7480;BME280;3781;42.272;22.658;2023-11-21T04:24:08;94222.84;;;13.05;47.01
7480;BME280;3781;42.272;22.658;2023-11-21T04:26:35;94228.38;;;13.02;46.49
7480;BME280;3781;42.272;22.658;2023-11-21T04:29:02;94218.69;;;13.28;46.53
7480;BME280;3781;42.272;22.658;2023-11-21T04:31:30;94218.19;;;13.25;46.18
7480;BME280;3781;42.272;22.658;2023-11-21T04:33:57;94229.81;;;13.46;45.59
7480;BME280;3781;42.272;22.658;2023-11-21T04:36:24;94231.28;;;13.49;45.46
7480;BME280;3781;42.272;22.658;2023-11-21T04:38:50;94228.84;;;13.47;45.75
7480;BME280;3781;42.272;22.658;2023-11-21T04:41:19;94231.75;;;13.36;45.09
7480;BME280;3781;42.272;22.658;2023-11-21T04:43:46;94201.69;;;12.66;45.79
7480;BME280;3781;42.272;22.658;2023-11-21T04:46:12;94234.38;;;12.61;46.47
7480;BME280;3781;42.272;22.658;2023-11-21T04:48:39;94219.91;;;13.00;45.64
7480;BME280;3781;42.272;22.658;2023-11-21T04:51:06;94226.81;;;13.17;45.84
7480;BME280;3781;42.272;22.658;2023-11-21T04:53:33;94235.03;;;12.97;46.10
7480;BME280;3781;42.272;22.658;2023-11-21T04:56:00;94233.66;;;13.18;45.71
7480;BME280;3781;42.272;22.658;2023-11-21T04:58:28;94219.41;;;13.54;45.62
7480;BME280;3781;42.272;22.658;2023-11-21T05:00:55;94227.19;;;13.46;45.46
7480;BME280;3781;42.272;22.658;2023-11-21T05:03:22;94230.75;;;13.29;45.76
7480;BME280;3781;42.272;22.658;2023-11-21T05:05:49;94237.00;;;13.52;45.46
7480;BME280;3781;42.272;22.658;2023-11-21T05:08:16;94231.28;;;13.41;45.39
7480;BME280;3781;42.272;22.658;2023-11-21T05:10:44;94237.00;;;13.52;44.98
7480;BME280;3781;42.272;22.658;2023-11-21T05:13:11;94237.03;;;13.03;45.17
7480;BME280;3781;42.272;22.658;2023-11-21T05:15:39;94231.44;;;13.39;45.56
7480;BME280;3781;42.272;22.658;2023-11-21T05:18:06;94236.25;;;13.10;45.31
7480;BME280;3781;42.272;22.658;2023-11-21T05:20:33;94238.44;;;13.31;44.94
7480;BME280;3781;42.272;22.658;2023-11-21T05:23:00;94214.75;;;13.16;45.00
7480;BME280;3781;42.272;22.658;2023-11-21T05:25:27;94232.25;;;13.40;45.21
7480;BME280;3781;42.272;22.658;2023-11-21T05:27:53;94236.66;;;13.55;44.63
7480;BME280;3781;42.272;22.658;2023-11-21T05:30:21;94240.44;;;13.61;44.51
7480;BME280;3781;42.272;22.658;2023-11-21T05:32:49;94249.59;;;13.73;44.67
7480;BME280;3781;42.272;22.658;2023-11-21T05:35:16;94237.63;;;13.46;44.65
7480;BME280;3781;42.272;22.658;2023-11-21T05:37:43;94236.84;;;13.46;44.56
7480;BME280;3781;42.272;22.658;2023-11-21T05:40:11;94236.66;;;13.55;44.98
7480;BME280;3781;42.272;22.658;2023-11-21T05:42:39;94247.09;;;13.55;44.95
7480;BME280;3781;42.272;22.658;2023-11-21T05:45:07;94225.59;;;13.45;44.85
7480;BME280;3781;42.272;22.658;2023-11-21T05:47:37;94251.38;;;13.73;44.33
7480;BME280;3781;42.272;22.658;2023-11-21T05:50:07;94254.97;;;13.64;44.44
7480;BME280;3781;42.272;22.658;2023-11-21T05:52:36;94253.94;;;13.40;45.30
7480;BME280;3781;42.272;22.658;2023-11-21T05:55:03;94242.28;;;13.11;45.71
7480;BME280;3781;42.272;22.658;2023-11-21T05:57:32;94235.34;;;12.94;46.12
7480;BME280;3781;42.272;22.658;2023-11-21T05:59:59;94245.44;;;12.97;46.28
7480;BME280;3781;42.272;22.658;2023-11-21T06:02:28;94233.28;;;13.05;46.40
7480;BME280;3781;42.272;22.658;2023-11-21T06:04:55;94238.84;;;13.10;46.49
7480;BME280;3781;42.272;22.658;2023-11-21T06:07:23;94246.75;;;13.42;46.11
7480;BME280;3781;42.272;22.658;2023-11-21T06:09:50;94248.69;;;13.24;46.20
7480;BME280;3781;42.272;22.658;2023-11-21T06:12:17;94237.97;;;13.43;45.85
7480;BME280;3781;42.272;22.658;2023-11-21T06:14:45;94194.44;;;13.52;45.44
7480;BME280;3781;42.272;22.658;2023-11-21T06:17:13;94242.59;;;13.98;45.37
7480;BME280;3781;42.272;22.658;2023-11-21T06:19:40;94253.16;;;14.20;44.77
7480;BME280;3781;42.272;22.658;2023-11-21T06:22:07;94252.03;;;14.23;44.68
7480;BME280;3781;42.272;22.658;2023-11-21T06:24:36;94228.84;;;14.52;44.43
7480;BME280;3781;42.272;22.658;2023-11-21T06:27:03;94254.16;;;14.52;44.23
7480;BME280;3781;42.272;22.658;2023-11-21T06:29:30;94260.53;;;14.49;44.61
7480;BME280;3781;42.272;22.658;2023-11-21T06:31:58;94257.75;;;14.59;43.94
7480;BME280;3781;42.272;22.658;2023-11-21T06:34:25;94235.41;;;14.32;44.17
7480;BME280;3781;42.272;22.658;2023-11-21T06:36:53;94259.13;;;14.93;43.73
7480;BME280;3781;42.272;22.658;2023-11-21T06:39:20;94271.66;;;15.45;43.15
7480;BME280;3781;42.272;22.658;2023-11-21T06:41:49;94258.81;;;16.11;43.08
7480;BME280;3781;42.272;22.658;2023-11-21T06:44:16;94259.22;;;16.00;42.30
7480;BME280;3781;42.272;22.658;2023-11-21T06:46:43;94266.00;;;16.54;42.19
7480;BME280;3781;42.272;22.658;2023-11-21T06:49:10;94238.81;;;16.70;41.10
7480;BME280;3781;42.272;22.658;2023-11-21T06:51:37;94267.94;;;17.04;40.47
7480;BME280;3781;42.272;22.658;2023-11-21T06:54:05;94272.06;;;17.28;39.87
7480;BME280;3781;42.272;22.658;2023-11-21T06:56:32;94263.75;;;16.81;39.61
7480;BME280;3781;42.272;22.658;2023-11-21T06:59:00;94263.78;;;16.43;40.68
7480;BME280;3781;42.272;22.658;2023-11-21T07:01:28;94268.81;;;16.97;39.42
7480;BME280;3781;42.272;22.658;2023-11-21T07:03:55;94270.91;;;17.16;39.23
7480;BME280;3781;42.272;22.658;2023-11-21T07:06:22;94255.22;;;17.22;39.14
7480;BME280;3781;42.272;22.658;2023-11-21T07:08:49;94275.06;;;17.25;39.13
7480;BME280;3781;42.272;22.658;2023-11-21T07:11:15;94042.69;;;15.78;39.63
7480;BME280;3781;42.272;22.658;2023-11-21T07:13:42;94282.94;;;17.25;39.65
7480;BME280;3781;42.272;22.658;2023-11-21T07:16:13;94290.09;;;17.31;40.15
7480;BME280;3781;42.272;22.658;2023-11-21T07:18:41;94271.72;;;17.31;40.10
7480;BME280;3781;42.272;22.658;2023-11-21T07:21:08;94284.75;;;17.54;39.32
7480;BME280;3781;42.272;22.658;2023-11-21T07:23:38;94281.09;;;16.44;41.29
7480;BME280;3781;42.272;22.658;2023-11-21T07:26:05;94275.63;;;17.06;40.00
7480;BME280;3781;42.272;22.658;2023-11-21T07:28:34;94278.97;;;17.00;39.42
7480;BME280;3781;42.272;22.658;2023-11-21T07:31:01;94280.69;;;16.93;40.11
7480;BME280;3781;42.272;22.658;2023-11-21T07:33:30;94280.41;;;17.46;39.80
7480;BME280;3781;42.272;22.658;2023-11-21T07:35:57;94285.19;;;17.28;39.46
7480;BME280;3781;42.272;22.658;2023-11-21T07:38:23;94293.59;;;17.38;39.33
7480;BME280;3781;42.272;22.658;2023-11-21T07:40:50;94288.63;;;17.72;38.93
7480;BME280;3781;42.272;22.658;2023-11-21T07:43:17;94274.97;;;17.83;38.37
7480;BME280;3781;42.272;22.658;2023-11-21T07:45:45;94277.00;;;18.24;37.57
7480;BME280;3781;42.272;22.658;2023-11-21T07:48:11;94281.91;;;18.27;36.94
7480;BME280;3781;42.272;22.658;2023-11-21T07:50:40;94293.56;;;18.66;36.83
7480;BME280;3781;42.272;22.658;2023-11-21T07:53:06;94293.78;;;18.44;37.04
7480;BME280;3781;42.272;22.658;2023-11-21T07:55:33;94290.00;;;18.32;37.14
7480;BME280;3781;42.272;22.658;2023-11-21T07:58:01;94282.31;;;18.51;36.86
7480;BME280;3781;42.272;22.658;2023-11-21T08:00:29;94274.16;;;18.67;36.22
7480;BME280;3781;42.272;22.658;2023-11-21T08:02:56;94278.94;;;18.57;36.64
7480;BME280;3781;42.272;22.658;2023-11-21T08:05:23;94252.34;;;18.73;36.31
7480;BME280;3781;42.272;22.658;2023-11-21T08:07:51;94272.84;;;19.12;36.22
7480;BME280;3781;42.272;22.658;2023-11-21T08:10:18;94271.84;;;18.79;36.34
7480;BME280;3781;42.272;22.658;2023-11-21T08:12:46;94256.31;;;19.31;35.72
7480;BME280;3781;42.272;22.658;2023-11-21T08:15:14;94269.16;;;19.88;34.83
7480;BME280;3781;42.272;22.658;2023-11-21T08:17:41;94238.75;;;19.99;34.34
7480;BME280;3781;42.272;22.658;2023-11-21T08:20:09;94244.09;;;20.25;34.86
7480;BME280;3781;42.272;22.658;2023-11-21T08:22:37;94238.66;;;19.19;36.22
7480;BME280;3781;42.272;22.658;2023-11-21T08:25:08;94221.38;;;20.70;34.19
7480;BME280;3781;42.272;22.658;2023-11-21T08:27:35;94239.81;;;21.16;32.73
7480;BME280;3781;42.272;22.658;2023-11-21T08:30:02;94238.25;;;21.52;32.28
7480;BME280;3781;42.272;22.658;2023-11-21T08:32:29;94231.59;;;21.94;32.01
7480;BME280;3781;42.272;22.658;2023-11-21T08:34:57;94244.19;;;21.99;32.05
7480;BME280;3781;42.272;22.658;2023-11-21T08:37:24;94227.31;;;22.24;31.16
7480;BME280;3781;42.272;22.658;2023-11-21T08:39:53;94240.97;;;22.21;31.00
7480;BME280;3781;42.272;22.658;2023-11-21T08:42:21;94226.31;;;21.94;31.24
7480;BME280;3781;42.272;22.658;2023-11-21T08:44:48;94231.78;;;21.48;31.69
7480;BME280;3781;42.272;22.658;2023-11-21T08:47:15;94236.28;;;21.35;32.23
7480;BME280;3781;42.272;22.658;2023-11-21T08:49:42;94200.94;;;21.29;32.09
7480;BME280;3781;42.272;22.658;2023-11-21T08:52:09;94216.91;;;21.98;31.38
7480;BME280;3781;42.272;22.658;2023-11-21T08:54:35;94215.91;;;22.80;30.24
7480;BME280;3781;42.272;22.658;2023-11-21T08:57:03;94216.06;;;22.60;30.68
7480;BME280;3781;42.272;22.658;2023-11-21T08:59:32;94193.22;;;22.10;31.15
7480;BME280;3781;42.272;22.658;2023-11-21T09:01:58;94213.19;;;21.68;31.15
7480;BME280;3781;42.272;22.658;2023-11-21T09:04:25;94201.03;;;20.96;32.29
7480;BME280;3781;42.272;22.658;2023-11-21T09:06:52;94173.69;;;20.58;32.89
7480;BME280;3781;42.272;22.658;2023-11-21T09:09:19;94173.91;;;20.44;32.95
7480;BME280;3781;42.272;22.658;2023-11-21T09:11:46;94154.41;;;20.51;33.44
7480;BME280;3781;42.272;22.658;2023-11-21T09:14:14;94177.38;;;20.24;33.54
7480;BME280;3781;42.272;22.658;2023-11-21T09:16:43;94173.44;;;19.75;34.92
7480;BME280;3781;42.272;22.658;2023-11-21T09:19:11;94175.19;;;19.41;35.65
7480;BME280;3781;42.272;22.658;2023-11-21T09:21:39;94171.97;;;19.46;35.28
7480;BME280;3781;42.272;22.658;2023-11-21T09:24:11;94131.94;;;19.29;35.15
7480;BME280;3781;42.272;22.658;2023-11-21T09:26:42;94163.06;;;19.06;36.09
7480;BME280;3781;42.272;22.658;2023-11-21T09:29:09;94157.31;;;18.83;36.91
7480;BME280;3781;42.272;22.658;2023-11-21T09:31:36;94154.94;;;18.33;37.51
7480;BME280;3781;42.272;22.658;2023-11-21T09:34:05;94146.19;;;18.53;38.73
7480;BME280;3781;42.272;22.658;2023-11-21T09:36:32;94143.59;;;18.32;38.43
7480;BME280;3781;42.272;22.658;2023-11-21T09:38:59;94141.25;;;18.44;38.26
7480;BME280;3781;42.272;22.658;2023-11-21T09:41:33;94136.94;;;19.05;37.43
7480;BME280;3781;42.272;22.658;2023-11-21T09:44:02;94136.44;;;19.29;37.04
7480;BME280;3781;42.272;22.658;2023-11-21T09:46:33;94124.22;;;19.15;36.42
7480;BME280;3781;42.272;22.658;2023-11-21T09:49:00;94129.56;;;19.34;36.38
7480;BME280;3781;42.272;22.658;2023-11-21T09:51:34;94121.75;;;19.87;35.69
7480;BME280;3781;42.272;22.658;2023-11-21T09:54:04;94104.94;;;19.88;35.54
7480;BME280;3781;42.272;22.658;2023-11-21T09:56:34;94118.72;;;20.03;35.92
7480;BME280;3781;42.272;22.658;2023-11-21T09:59:01;94082.22;;;19.87;36.07
7480;BME280;3781;42.272;22.658;2023-11-21T10:01:32;94116.28;;;20.01;35.63
7480;BME280;3781;42.272;22.658;2023-11-21T10:04:00;94123.41;;;20.20;36.48
7480;BME280;3781;42.272;22.658;2023-11-21T10:06:28;94109.41;;;20.40;36.45
7480;BME280;3781;42.272;22.658;2023-11-21T10:08:59;94113.03;;;20.32;36.04
7480;BME280;3781;42.272;22.658;2023-11-21T10:11:27;94098.84;;;20.20;36.74
7480;BME280;3781;42.272;22.658;2023-11-21T10:13:55;94038.84;;;19.70;36.78
7480;BME280;3781;42.272;22.658;2023-11-21T10:16:26;94091.13;;;20.25;36.97
7480;BME280;3781;42.272;22.658;2023-11-21T10:18:53;94056.69;;;19.81;37.82
7480;BME280;3781;42.272;22.658;2023-11-21T10:21:21;94090.94;;;20.07;38.08
7480;BME280;3781;42.272;22.658;2023-11-21T10:23:48;94087.28;;;20.08;37.03
7480;BME280;3781;42.272;22.658;2023-11-21T10:26:17;94091.94;;;19.99;37.58
7480;BME280;3781;42.272;22.658;2023-11-21T10:28:55;94081.81;;;19.50;38.26
7480;BME280;3781;42.272;22.658;2023-11-21T10:31:23;94073.22;;;19.22;38.97
7480;BME280;3781;42.272;22.658;2023-11-21T10:33:50;94061.44;;;19.18;38.51
7480;BME280;3781;42.272;22.658;2023-11-21T10:36:25;94063.56;;;19.55;39.31
7480;BME280;3781;42.272;22.658;2023-11-21T10:38:52;94062.28;;;19.25;39.71
7480;BME280;3781;42.272;22.658;2023-11-21T10:41:21;94046.97;;;19.48;39.35
7480;BME280;3781;42.272;22.658;2023-11-21T10:43:48;94044.44;;;19.27;38.88
7480;BME280;3781;42.272;22.658;2023-11-21T10:46:15;94036.44;;;19.48;39.03
7480;BME280;3781;42.272;22.658;2023-11-21T10:48:42;94044.13;;;19.70;38.22
7480;BME280;3781;42.272;22.658;2023-11-21T10:51:09;94057.91;;;19.85;38.64
7480;BME280;3781;42.272;22.658;2023-11-21T10:53:39;94061.13;;;20.33;37.85
7480;BME280;3781;42.272;22.658;2023-11-21T10:56:08;94034.28;;;20.55;38.39
7480;BME280;3781;42.272;22.658;2023-11-21T10:58:38;94051.25;;;20.72;37.61
7480;BME280;3781;42.272;22.658;2023-11-21T11:01:06;94038.31;;;20.51;36.97
7480;BME280;3781;42.272;22.658;2023-11-21T11:03:37;94037.81;;;20.80;36.59
7480;BME280;3781;42.272;22.658;2023-11-21T11:06:05;94038.31;;;21.02;36.36
7480;BME280;3781;42.272;22.658;2023-11-21T11:08:37;94037.34;;;20.96;35.65
7480;BME280;3781;42.272;22.658;2023-11-21T11:11:04;93999.75;;;20.63;35.89
7480;BME280;3781;42.272;22.658;2023-11-21T11:13:31;94010.38;;;20.37;36.23
7480;BME280;3781;42.272;22.658;2023-11-21T11:16:01;94016.78;;;21.12;36.55
7480;BME280;3781;42.272;22.658;2023-11-21T11:18:29;94027.00;;;21.33;35.82
7480;BME280;3781;42.272;22.658;2023-11-21T11:21:05;94008.72;;;21.87;35.31
7480;BME280;3781;42.272;22.658;2023-11-21T11:23:46;94018.66;;;22.10;35.07
7480;BME280;3781;42.272;22.658;2023-11-21T11:26:24;94003.22;;;22.31;34.88
7480;BME280;3781;42.272;22.658;2023-11-21T11:29:01;94007.03;;;22.35;34.17
7480;BME280;3781;42.272;22.658;2023-11-21T11:31:54;94002.31;;;22.19;33.96
7480;BME280;3781;42.272;22.658;2023-11-21T11:34:29;93991.00;;;21.63;34.72
7480;BME280;3781;42.272;22.658;2023-11-21T11:37:00;94003.31;;;21.51;35.30
7480;BME280;3781;42.272;22.658;2023-11-21T11:39:30;93992.16;;;21.18;35.70
7480;BME280;3781;42.272;22.658;2023-11-21T11:41:59;93976.78;;;21.01;35.58
7480;BME280;3781;42.272;22.658;2023-11-21T11:44:48;93993.06;;;21.30;35.71
7480;BME280;3781;42.272;22.658;2023-11-21T11:47:24;93889.84;;;20.44;36.63
7480;BME280;3781;42.272;22.658;2023-11-21T11:50:04;93986.03;;;21.73;36.28
7480;BME280;3781;42.272;22.658;2023-11-21T11:52:37;93953.13;;;21.69;35.20
7480;BME280;3781;42.272;22.658;2023-11-21T11:55:06;93964.88;;;21.98;34.54
7480;BME280;3781;42.272;22.658;2023-11-21T11:57:35;93952.25;;;20.94;36.64
7480;BME280;3781;42.272;22.658;2023-11-21T12:00:33;93958.22;;;22.13;35.21
7480;BME280;3781;42.272;22.658;2023-11-21T12:03:08;93953.06;;;22.55;34.95
7480;BME280;3781;42.272;22.658;2023-11-21T12:05:36;93913.88;;;22.45;33.91
7480;BME280;3781;42.272;22.658;2023-11-21T12:08:05;93944.72;;;22.99;33.91
7480;BME280;3781;42.272;22.658;2023-11-21T12:10:33;93934.94;;;23.29;33.82
7480;BME280;3781;42.272;22.658;2023-11-21T12:13:02;93941.81;;;23.30;33.41
7480;BME280;3781;42.272;22.658;2023-11-21T12:15:30;93895.06;;;23.24;33.67
7480;BME280;3781;42.272;22.658;2023-11-21T12:17:57;93948.91;;;23.48;33.34
7480;BME280;3781;42.272;22.658;2023-11-21T12:20:27;93933.34;;;23.51;33.37
7480;BME280;3781;42.272;22.658;2023-11-21T12:22:55;93932.81;;;23.72;32.86
7480;BME280;3781;42.272;22.658;2023-11-21T12:25:23;93927.84;;;23.87;33.05
7480;BME280;3781;42.272;22.658;2023-11-21T12:27:54;93929.47;;;23.65;32.75
7480;BME280;3781;42.272;22.658;2023-11-21T12:30:23;93914.69;;;23.69;32.59
7480;BME280;3781;42.272;22.658;2023-11-21T12:32:53;93924.59;;;23.62;32.47
7480;BME280;3781;42.272;22.658;2023-11-21T12:35:22;93933.72;;;23.66;32.96
7480;BME280;3781;42.272;22.658;2023-11-21T12:37:52;93919.75;;;23.48;33.25
7480;BME280;3781;42.272;22.658;2023-11-21T12:40:19;93920.28;;;23.27;33.59
7480;BME280;3781;42.272;22.658;2023-11-21T12:42:52;93927.75;;;23.59;33.11
7480;BME280;3781;42.272;22.658;2023-11-21T12:45:21;93921.38;;;23.37;33.56
7480;BME280;3781;42.272;22.658;2023-11-21T12:47:49;93904.50;;;23.20;33.34
7480;BME280;3781;42.272;22.658;2023-11-21T12:50:19;93908.31;;;23.24;33.11
7480;BME280;3781;42.272;22.658;2023-11-21T12:52:50;93895.91;;;22.95;33.81
7480;BME280;3781;42.272;22.658;2023-11-21T12:55:20;93899.41;;;23.07;33.43
7480;BME280;3781;42.272;22.658;2023-11-21T12:57:49;93878.84;;;22.91;33.44
7480;BME280;3781;42.272;22.658;2023-11-21T13:00:20;93899.41;;;22.66;33.76
7480;BME280;3781;42.272;22.658;2023-11-21T13:02:54;93883.16;;;22.44;34.51
7480;BME280;3781;42.272;22.658;2023-11-21T13:05:29;93895.66;;;22.85;33.61
7480;BME280;3781;42.272;22.658;2023-11-21T13:07:59;93887.06;;;22.41;34.50
7480;BME280;3781;42.272;22.658;2023-11-21T13:10:29;93887.03;;;21.94;35.30
7480;BME280;3781;42.272;22.658;2023-11-21T13:12:57;93891.19;;;22.19;34.94
7480;BME280;3781;42.272;22.658;2023-11-21T13:15:26;93904.59;;;22.06;35.20